createdAt,value
2023-01-17T00:02:05.942Z,5.17
2023-01-17T00:04:51.290Z,5.90
2023-01-17T00:07:38.177Z,5.20
2023-01-17T00:10:14.371Z,6.50
2023-01-17T00:12:46.744Z,6.17
2023-01-17T00:15:14.058Z,5.83
2023-01-17T00:17:40.662Z,6.87
2023-01-17T00:20:26.814Z,6.00
2023-01-17T00:23:12.126Z,6.10
2023-01-17T00:25:57.573Z,6.47
2023-01-17T00:28:25.731Z,5.40
2023-01-17T00:30:52.456Z,5.40
2023-01-17T00:33:20.112Z,5.73
2023-01-17T00:35:47.201Z,4.63
2023-01-17T00:38:16.750Z,3.40
2023-01-17T00:40:44.635Z,3.97
2023-01-17T00:43:31.220Z,3.50
2023-01-17T00:46:16.571Z,3.53
2023-01-17T00:49:01.869Z,2.80
2023-01-17T00:51:48.972Z,2.47
2023-01-17T00:54:34.799Z,2.70
2023-01-17T00:57:20.936Z,2.10
2023-01-17T01:00:06.310Z,2.50
2023-01-17T01:02:51.759Z,2.40
2023-01-17T01:05:37.511Z,2.53
2023-01-17T01:08:33.585Z,3.00
2023-01-17T01:11:18.848Z,2.53
2023-01-17T01:14:06.739Z,2.83
2023-01-17T01:16:52.190Z,2.90
2023-01-17T01:19:37.439Z,2.67
2023-01-17T01:22:22.834Z,2.30
2023-01-17T01:25:08.101Z,2.43
2023-01-17T01:27:53.525Z,2.17
2023-01-17T01:30:38.648Z,2.00
2023-01-17T01:33:18.892Z,2.10
2023-01-17T01:35:50.181Z,1.80
2023-01-17T01:38:18.955Z,1.60
2023-01-17T01:40:52.498Z,1.80
2023-01-17T01:43:41.394Z,1.80
2023-01-17T01:46:12.471Z,2.33
2023-01-17T01:48:47.757Z,1.43
2023-01-17T01:51:20.681Z,1.50
2023-01-17T01:53:51.036Z,1.17
2023-01-17T01:56:19.948Z,1.20
2023-01-17T01:58:51.734Z,1.40
2023-01-17T02:01:18.982Z,1.43
2023-01-17T02:03:46.889Z,1.30
2023-01-17T02:06:33.457Z,1.37
2023-01-17T02:09:04.470Z,1.63
2023-01-17T02:11:31.803Z,1.43
2023-01-17T02:13:58.408Z,2.63
2023-01-17T02:16:30.868Z,1.47
2023-01-17T02:19:05.534Z,1.40
2023-01-17T02:21:37.835Z,1.40
2023-01-17T02:24:36.245Z,1.50
2023-01-17T02:27:24.070Z,0.90
2023-01-17T02:30:32.058Z,0.60
2023-01-17T02:33:20.241Z,0.50
2023-01-17T02:36:04.402Z,0.40
2023-01-17T02:38:31.567Z,0.50
2023-01-17T02:41:05.435Z,0.80
2023-01-17T02:43:33.636Z,0.70
2023-01-17T02:46:00.535Z,0.70
2023-01-17T02:48:30.202Z,0.80
2023-01-17T02:51:08.043Z,0.80
2023-01-17T02:53:54.775Z,0.87
2023-01-17T02:56:40.006Z,1.17
2023-01-17T02:59:25.379Z,0.70
2023-01-17T03:02:23.249Z,0.70
2023-01-17T03:05:16.571Z,0.80
2023-01-17T03:07:44.229Z,0.83
2023-01-17T03:10:12.667Z,0.77
2023-01-17T03:12:40.436Z,0.90
2023-01-17T03:15:12.780Z,1.00
2023-01-17T03:17:44.653Z,1.47
2023-01-17T03:20:12.807Z,1.00
2023-01-17T03:22:39.522Z,1.10
2023-01-17T03:25:06.836Z,0.90
2023-01-17T03:27:33.581Z,0.97
2023-01-17T03:30:00.216Z,0.80
2023-01-17T03:32:26.799Z,0.73
2023-01-17T03:34:53.451Z,0.70
2023-01-17T03:37:20.000Z,0.73
2023-01-17T03:39:46.576Z,0.77
2023-01-17T03:42:13.135Z,0.60
2023-01-17T03:44:39.729Z,0.80
2023-01-17T03:47:06.349Z,0.83
2023-01-17T03:49:32.956Z,0.60
2023-01-17T03:51:59.503Z,0.80
2023-01-17T03:54:26.153Z,0.90
2023-01-17T03:56:52.734Z,0.97
2023-01-17T03:59:19.281Z,0.80
2023-01-17T04:01:45.924Z,0.90
2023-01-17T04:04:12.530Z,1.10
2023-01-17T04:06:39.200Z,1.53
2023-01-17T04:09:05.833Z,1.80
2023-01-17T04:11:32.431Z,1.67
2023-01-17T04:13:59.076Z,1.50
2023-01-17T04:16:30.974Z,2.20
2023-01-17T04:18:57.827Z,1.43
2023-01-17T04:21:24.461Z,1.40
2023-01-17T04:23:51.034Z,1.77
2023-01-17T04:26:17.596Z,1.80
2023-01-17T04:28:44.426Z,2.10
2023-01-17T04:31:17.527Z,2.30
2023-01-17T04:33:44.232Z,2.27
2023-01-17T04:36:10.841Z,2.07
2023-01-17T04:38:37.466Z,2.00
2023-01-17T04:41:04.169Z,1.67
2023-01-17T04:43:30.781Z,2.37
2023-01-17T04:45:58.452Z,2.57
2023-01-17T04:48:25.262Z,2.30
2023-01-17T04:51:02.468Z,2.43
2023-01-17T04:53:29.153Z,2.77
2023-01-17T04:55:55.901Z,2.50
2023-01-17T04:58:22.861Z,3.33
2023-01-17T05:00:50.921Z,4.30
2023-01-17T05:03:22.286Z,3.47
2023-01-17T05:05:49.331Z,4.27
2023-01-17T05:08:15.904Z,4.80
2023-01-17T05:10:45.118Z,4.20
2023-01-17T05:13:11.666Z,4.50
2023-01-17T05:15:38.812Z,4.43
2023-01-17T05:18:08.456Z,4.20
2023-01-17T05:20:36.499Z,4.13
2023-01-17T05:23:03.104Z,3.63
2023-01-17T05:25:31.855Z,4.00
2023-01-17T05:28:00.039Z,3.80
2023-01-17T05:30:27.712Z,3.90
2023-01-17T05:32:56.276Z,4.57
2023-01-17T05:35:25.849Z,3.60
2023-01-17T05:37:53.186Z,3.57
2023-01-17T05:40:26.034Z,3.33
2023-01-17T05:42:54.758Z,3.90
2023-01-17T05:45:23.210Z,4.40
2023-01-17T05:47:52.103Z,3.87
2023-01-17T05:50:21.226Z,4.20
2023-01-17T05:52:55.891Z,4.10
2023-01-17T05:55:23.519Z,3.90
2023-01-17T05:57:50.724Z,3.80
2023-01-17T06:00:18.590Z,3.97
2023-01-17T06:02:46.678Z,4.17
2023-01-17T06:05:14.255Z,3.63
2023-01-17T06:07:44.433Z,4.13
2023-01-17T06:10:11.970Z,3.20
2023-01-17T06:12:38.533Z,3.57
2023-01-17T06:15:05.539Z,3.10
2023-01-17T06:17:32.118Z,3.70
2023-01-17T06:19:58.941Z,3.60
2023-01-17T06:22:25.612Z,3.80
2023-01-17T06:24:52.173Z,3.23
2023-01-17T06:27:18.829Z,2.70
2023-01-17T06:29:45.418Z,2.70
2023-01-17T06:32:13.974Z,3.10
2023-01-17T06:34:41.127Z,3.13
2023-01-17T06:37:08.430Z,2.90
2023-01-17T06:39:35.130Z,2.93
2023-01-17T06:42:01.701Z,2.50
2023-01-17T06:44:28.279Z,2.93
2023-01-17T06:46:54.894Z,2.37
2023-01-17T06:49:23.510Z,3.03
2023-01-17T06:51:50.445Z,2.90
2023-01-17T06:54:17.059Z,2.40
2023-01-17T06:56:43.626Z,3.40
2023-01-17T06:59:10.276Z,3.00
2023-01-17T07:01:40.118Z,3.33
2023-01-17T07:04:06.791Z,2.73
2023-01-17T07:06:36.253Z,3.13
2023-01-17T07:09:04.109Z,3.33
2023-01-17T07:11:31.183Z,3.50
2023-01-17T07:13:57.872Z,4.03
2023-01-17T07:16:24.524Z,3.70
2023-01-17T07:18:51.706Z,4.40
2023-01-17T07:21:18.537Z,3.83
2023-01-17T07:23:45.136Z,4.10
2023-01-17T07:26:11.801Z,4.40
2023-01-17T07:28:38.359Z,4.10
2023-01-17T07:31:10.812Z,4.20
2023-01-17T07:33:37.698Z,5.63
2023-01-17T07:36:07.234Z,4.67
2023-01-17T07:38:34.559Z,4.57
2023-01-17T07:41:01.398Z,4.50
2023-01-17T07:43:27.919Z,5.30
2023-01-17T07:45:54.732Z,5.40
2023-01-17T07:48:23.968Z,6.67
2023-01-17T07:50:55.722Z,5.10
2023-01-17T07:53:24.623Z,5.07
2023-01-17T07:55:52.272Z,5.50
2023-01-17T07:58:19.075Z,5.60
2023-01-17T08:00:46.255Z,6.10
2023-01-17T08:03:15.086Z,5.97
2023-01-17T08:05:55.162Z,6.50
2023-01-17T08:08:21.901Z,6.60
2023-01-17T08:10:49.383Z,6.60
2023-01-17T08:13:15.970Z,6.60
2023-01-17T08:15:42.752Z,6.47
2023-01-17T08:18:09.358Z,7.30
2023-01-17T08:20:35.890Z,7.40
2023-01-17T08:23:02.562Z,8.53
2023-01-17T08:25:29.109Z,7.73
2023-01-17T08:27:58.946Z,8.33
2023-01-17T08:30:26.412Z,8.70
2023-01-17T08:36:40.839Z,10.00
2023-01-17T08:39:07.372Z,9.90
2023-01-17T08:41:33.984Z,10.13
2023-01-17T08:44:00.522Z,9.90
2023-01-17T08:46:27.284Z,9.47
2023-01-17T08:48:55.773Z,9.63
2023-01-17T08:51:26.154Z,11.70
2023-01-17T08:53:54.423Z,10.03
2023-01-17T08:56:21.037Z,10.10
2023-01-17T08:58:47.725Z,10.70
2023-01-17T09:01:14.371Z,10.53
2023-01-17T09:03:41.350Z,11.77
2023-01-17T09:06:13.168Z,11.47
2023-01-17T09:08:40.342Z,11.60
2023-01-17T09:11:12.604Z,11.30
2023-01-17T09:13:39.525Z,13.50
2023-01-17T09:16:06.748Z,12.20
2023-01-17T09:18:34.418Z,12.77
2023-01-17T09:21:13.211Z,13.50
2023-01-17T09:23:40.396Z,13.50
2023-01-17T09:26:07.221Z,13.77
2023-01-17T09:28:40.742Z,13.90
2023-01-17T09:31:08.464Z,13.57
2023-01-17T09:33:35.455Z,15.50
2023-01-17T09:36:04.257Z,14.20
2023-01-17T09:38:31.586Z,15.17
2023-01-17T09:40:58.773Z,17.37
2023-01-17T09:43:47.677Z,13.80
2023-01-17T09:50:33.504Z,14.10
2023-01-17T09:53:06.998Z,13.00
2023-01-17T09:55:50.793Z,13.10
2023-01-17T09:58:38.615Z,15.13
2023-01-17T10:01:17.594Z,12.97
2023-01-17T10:03:50.741Z,12.60
2023-01-17T10:06:34.350Z,12.00
2023-01-17T10:09:48.570Z,13.50
2023-01-17T10:12:28.125Z,12.67
2023-01-17T10:15:19.509Z,12.17
2023-01-17T10:17:54.098Z,12.03
2023-01-17T10:20:39.331Z,10.47
2023-01-17T10:23:39.662Z,11.07
2023-01-17T10:26:25.721Z,10.07
2023-01-17T10:28:55.295Z,10.90
2023-01-17T10:31:33.802Z,9.40
2023-01-17T10:34:15.394Z,9.73
2023-01-17T10:36:48.612Z,9.40
2023-01-17T10:39:21.565Z,8.97
2023-01-17T10:41:58.373Z,8.60
2023-01-17T10:44:35.308Z,9.10
2023-01-17T10:47:10.390Z,8.93
2023-01-17T10:49:46.157Z,8.87
2023-01-17T10:52:43.217Z,9.53
2023-01-17T10:55:09.978Z,9.90
2023-01-17T10:57:42.563Z,9.93
2023-01-17T11:00:44.083Z,9.27
2023-01-17T11:03:12.662Z,10.07
2023-01-17T11:05:41.015Z,10.67
2023-01-17T11:08:10.366Z,9.93
2023-01-17T11:10:39.851Z,10.70
2023-01-17T11:13:31.795Z,9.23
2023-01-17T11:16:08.597Z,9.67
2023-01-17T11:18:38.170Z,9.47
2023-01-17T11:21:36.739Z,8.97
2023-01-17T11:24:11.713Z,9.70
2023-01-17T11:26:47.386Z,10.33
2023-01-17T11:29:34.692Z,9.60
2023-01-17T11:32:20.942Z,8.70
2023-01-17T11:35:13.981Z,8.43
2023-01-17T11:37:51.608Z,7.60
2023-01-17T11:40:43.924Z,8.23
2023-01-17T11:43:27.282Z,7.97
2023-01-17T11:46:01.753Z,7.27
2023-01-17T11:48:38.344Z,7.30
2023-01-17T11:51:18.599Z,7.33
2023-01-17T11:53:49.165Z,7.50
2023-01-17T11:56:20.865Z,6.87
2023-01-17T11:58:47.505Z,6.60
2023-01-17T12:01:29.104Z,6.33
2023-01-17T12:04:37.281Z,6.10
2023-01-17T12:07:32.654Z,6.43
2023-01-17T12:10:11.122Z,5.33
2023-01-17T12:13:39.187Z,5.17
2023-01-17T12:16:31.353Z,5.37
2023-01-17T12:19:22.245Z,5.63
2023-01-17T12:22:10.465Z,5.50
2023-01-17T12:24:54.128Z,5.07
2023-01-17T12:27:48.248Z,5.90
2023-01-17T12:30:36.482Z,4.53
2023-01-17T12:33:19.020Z,5.60
2023-01-17T12:35:52.841Z,7.53
2023-01-17T12:38:32.862Z,5.90
2023-01-17T12:41:23.248Z,6.90
2023-01-17T12:43:54.514Z,6.37
2023-01-17T12:46:30.745Z,6.40
2023-01-17T12:49:27.252Z,7.50
2023-01-17T12:52:04.875Z,5.60
2023-01-17T12:54:44.596Z,5.90
2023-01-17T12:57:24.974Z,6.10
2023-01-17T13:00:04.981Z,6.00
2023-01-17T13:02:51.421Z,6.43
2023-01-17T13:05:35.573Z,6.57
2023-01-17T13:08:28.302Z,6.40
2023-01-17T13:11:11.835Z,5.10
2023-01-17T13:13:41.253Z,5.50
2023-01-17T13:16:14.446Z,4.10
2023-01-17T13:18:49.011Z,4.40
2023-01-17T13:21:31.842Z,4.33
2023-01-17T13:24:07.495Z,4.63
2023-01-17T13:26:48.875Z,4.90
2023-01-17T13:29:44.242Z,3.00
2023-01-17T13:32:26.017Z,3.00
2023-01-17T13:35:33.377Z,3.00
2023-01-17T13:38:08.560Z,3.00
2023-01-17T13:40:50.056Z,3.03
2023-01-17T13:43:26.092Z,3.97
2023-01-17T13:45:58.506Z,3.40
2023-01-17T13:48:28.441Z,2.63
2023-01-17T13:50:59.795Z,2.80
2023-01-17T13:53:29.095Z,3.10
2023-01-17T13:56:19.782Z,3.07
2023-01-17T13:58:50.241Z,3.23
2023-01-17T14:01:22.901Z,3.03
2023-01-17T14:03:49.864Z,3.43
2023-01-17T14:06:38.391Z,3.77
2023-01-17T14:09:07.967Z,3.93
2023-01-17T14:11:36.636Z,4.00
2023-01-17T14:14:37.389Z,3.33
2023-01-17T14:17:16.221Z,3.90
2023-01-17T14:19:48.146Z,3.97
2023-01-17T14:22:17.783Z,3.97
2023-01-17T14:25:09.696Z,4.27
2023-01-17T14:27:42.311Z,4.40
2023-01-17T14:30:25.557Z,4.30
2023-01-17T14:33:01.458Z,4.40
2023-01-17T14:35:37.442Z,5.00
2023-01-17T14:38:27.103Z,4.80
2023-01-17T14:41:18.841Z,4.90
2023-01-17T14:43:48.192Z,4.97
2023-01-17T14:46:24.634Z,4.63
2023-01-17T14:49:01.225Z,4.87
2023-01-17T14:51:28.431Z,5.70
2023-01-17T14:53:59.754Z,5.90
2023-01-17T14:56:28.262Z,5.90
2023-01-17T14:59:19.040Z,6.33
2023-01-17T15:02:06.833Z,6.20
2023-01-17T15:04:39.016Z,5.70
2023-01-17T15:07:05.772Z,5.73
2023-01-17T15:09:37.632Z,6.40
2023-01-17T15:12:08.280Z,5.73
2023-01-17T15:14:39.161Z,5.50
2023-01-17T15:17:24.748Z,5.70
2023-01-17T15:19:59.167Z,6.70
2023-01-17T15:22:26.943Z,5.70
2023-01-17T15:24:54.296Z,5.60
2023-01-17T15:27:22.945Z,6.60
2023-01-17T15:29:49.956Z,5.77
2023-01-17T15:32:24.553Z,7.40
2023-01-17T15:34:52.051Z,5.63
2023-01-17T15:37:29.599Z,7.20
2023-01-17T15:40:17.853Z,7.17
2023-01-17T15:42:50.566Z,7.00
2023-01-17T15:45:20.776Z,6.30
2023-01-17T15:47:48.811Z,6.23
2023-01-17T15:50:27.737Z,7.20
2023-01-17T15:53:00.833Z,7.70
2023-01-17T15:55:32.873Z,7.20
2023-01-17T15:58:00.688Z,7.10
2023-01-17T16:00:37.065Z,8.23
2023-01-17T16:03:24.249Z,7.57
2023-01-17T16:05:53.018Z,8.33
2023-01-17T16:08:27.313Z,7.63
2023-01-17T16:10:58.025Z,7.57
2023-01-17T16:13:24.739Z,9.03
2023-01-17T16:15:51.333Z,8.50
2023-01-17T16:18:23.925Z,8.40
2023-01-17T16:20:59.135Z,7.40
2023-01-17T16:23:26.309Z,7.00
2023-01-17T16:25:53.889Z,6.53
2023-01-17T16:28:20.914Z,7.67
2023-01-17T16:30:48.783Z,8.30
2023-01-17T16:33:15.774Z,9.17
2023-01-17T16:35:42.956Z,8.73
2023-01-17T16:38:15.531Z,8.27
2023-01-17T16:40:44.292Z,7.83
2023-01-17T16:43:12.047Z,9.00
2023-01-17T16:45:48.199Z,10.00
2023-01-17T16:48:16.348Z,9.63
2023-01-17T16:50:48.075Z,11.77
2023-01-17T16:53:17.754Z,8.90
2023-01-17T16:55:44.660Z,8.40
2023-01-17T16:58:11.264Z,8.60
2023-01-17T17:00:40.071Z,10.77
2023-01-17T17:03:07.102Z,11.50
2023-01-17T17:05:34.091Z,14.87
2023-01-17T17:08:01.169Z,12.40
2023-01-17T17:10:27.822Z,9.60
2023-01-17T17:12:54.778Z,9.50
2023-01-17T17:15:21.509Z,10.30
2023-01-17T17:17:48.279Z,10.63
2023-01-17T17:20:16.207Z,11.40
2023-01-17T17:22:48.660Z,10.87
2023-01-17T17:25:15.846Z,10.97
2023-01-17T17:27:42.489Z,11.07
2023-01-17T17:30:10.307Z,10.40
2023-01-17T17:32:36.896Z,9.43
2023-01-17T17:35:03.617Z,9.17
2023-01-17T17:37:30.365Z,9.50
2023-01-17T17:39:57.455Z,11.33
2023-01-17T17:42:24.146Z,9.53
2023-01-17T17:44:50.891Z,9.60
2023-01-17T17:47:17.797Z,10.80
2023-01-17T17:49:44.429Z,12.30
2023-01-17T17:52:11.076Z,12.50
2023-01-17T17:54:37.718Z,10.17
2023-01-17T17:57:04.851Z,11.60
2023-01-17T17:59:31.629Z,12.30
2023-01-17T18:01:59.584Z,15.03
2023-01-17T18:04:26.622Z,13.37
2023-01-17T18:06:57.157Z,11.93
2023-01-17T18:09:28.558Z,10.33
2023-01-17T18:11:55.347Z,11.13
2023-01-17T18:14:23.922Z,10.40
2023-01-17T18:16:50.757Z,11.53
2023-01-17T18:19:24.149Z,10.90
2023-01-17T18:21:51.490Z,10.30
2023-01-17T18:24:23.031Z,11.80
2023-01-17T18:26:54.409Z,13.03
2023-01-17T18:29:21.990Z,13.50
2023-01-17T18:31:50.156Z,17.80
2023-01-17T18:34:23.791Z,17.53
2023-01-17T18:36:51.782Z,15.50
2023-01-17T18:39:21.693Z,16.73
2023-01-17T18:41:49.283Z,16.50
2023-01-17T18:44:16.807Z,17.10
2023-01-17T18:46:43.519Z,16.67
2023-01-17T18:49:11.327Z,15.97
2023-01-17T18:51:38.192Z,17.63
2023-01-17T18:54:07.247Z,21.83
2023-01-17T18:56:34.801Z,20.73
2023-01-17T18:59:05.704Z,22.63
2023-01-17T19:01:35.906Z,23.87
2023-01-17T19:04:05.077Z,19.00
2023-01-17T19:06:42.981Z,19.17
2023-01-17T19:09:11.705Z,20.10
2023-01-17T19:11:38.288Z,23.93
2023-01-17T19:14:05.478Z,21.37
2023-01-17T19:16:35.796Z,18.97
2023-01-17T19:19:05.368Z,19.80
2023-01-17T19:21:31.962Z,20.80
2023-01-17T19:23:58.684Z,19.60
2023-01-17T19:26:27.171Z,19.93
2023-01-17T19:28:58.761Z,19.13
2023-01-17T19:31:28.130Z,19.10
2023-01-17T19:33:57.331Z,20.20
2023-01-17T19:36:29.441Z,22.53
2023-01-17T19:39:04.434Z,21.33
2023-01-17T19:41:33.802Z,19.70
2023-01-17T19:44:04.563Z,17.80
2023-01-17T19:46:31.577Z,19.17
2023-01-17T19:48:58.462Z,17.67
2023-01-17T19:51:26.689Z,18.03
2023-01-17T19:53:56.451Z,19.60
2023-01-17T19:56:25.304Z,17.93
2023-01-17T19:58:52.860Z,16.57
2023-01-17T20:01:28.577Z,16.70
2023-01-17T20:03:57.928Z,16.77
2023-01-17T20:06:27.452Z,17.70
2023-01-17T20:08:54.040Z,17.20
2023-01-17T20:11:23.911Z,17.53
2023-01-17T20:13:56.407Z,16.80
2023-01-17T20:16:24.775Z,15.07
2023-01-17T20:18:52.230Z,15.97
2023-01-17T20:21:24.599Z,17.13
2023-01-17T20:23:52.821Z,19.60
2023-01-17T20:26:25.329Z,23.03
2023-01-17T20:28:52.921Z,22.97
2023-01-17T20:31:22.696Z,25.40
2023-01-17T20:33:52.965Z,26.13
2023-01-17T20:36:21.581Z,21.90
2023-01-17T20:38:48.813Z,20.87
2023-01-17T20:41:41.418Z,23.43
2023-01-17T20:44:11.316Z,20.40
2023-01-17T20:46:41.023Z,19.63
2023-01-17T20:49:18.699Z,17.70
2023-01-17T20:51:46.739Z,14.20
2023-01-17T20:54:15.863Z,15.47
2023-01-17T20:56:43.464Z,14.73
2023-01-17T20:59:16.105Z,14.60
2023-01-17T21:01:44.119Z,14.33
2023-01-17T21:04:11.426Z,15.50
2023-01-17T21:06:39.453Z,14.77
2023-01-17T21:09:08.532Z,15.60
2023-01-17T21:11:35.795Z,15.00
2023-01-17T21:14:02.481Z,14.57
2023-01-17T21:16:29.213Z,14.40
2023-01-17T21:18:56.923Z,13.33
2023-01-17T21:21:26.184Z,15.27
2023-01-17T21:23:54.961Z,14.90
2023-01-17T21:26:22.897Z,15.17
2023-01-17T21:28:50.627Z,13.80
2023-01-17T21:31:26.123Z,14.60
2023-01-17T21:33:55.275Z,13.70
2023-01-17T21:36:24.289Z,14.33
2023-01-17T21:38:57.104Z,14.17
2023-01-17T21:41:28.363Z,13.10
2023-01-17T21:43:56.960Z,19.10
2023-01-17T21:46:24.488Z,15.60
2023-01-17T21:48:51.073Z,15.00
2023-01-17T21:51:19.521Z,14.73
2023-01-17T21:53:46.173Z,13.73
2023-01-17T21:56:32.388Z,13.40
2023-01-17T21:58:59.668Z,13.37
2023-01-17T22:01:32.483Z,14.97
2023-01-17T22:04:04.012Z,17.47
2023-01-17T22:06:34.308Z,17.60
2023-01-17T22:09:01.160Z,18.27
2023-01-17T22:11:30.248Z,15.07
2023-01-17T22:13:58.964Z,14.40
2023-01-17T22:16:26.043Z,13.40
2023-01-17T22:18:52.887Z,13.20
2023-01-17T22:21:22.428Z,13.83
2023-01-17T22:23:51.974Z,13.87
2023-01-17T22:26:19.813Z,16.63
2023-01-17T22:28:46.528Z,16.37
2023-01-17T22:31:17.516Z,14.20
2023-01-17T22:33:47.483Z,14.23
2023-01-17T22:36:14.902Z,13.27
2023-01-17T22:38:42.693Z,13.20
2023-01-17T22:41:18.026Z,14.43
2023-01-17T22:43:47.025Z,12.50
2023-01-17T22:46:16.152Z,11.63
2023-01-17T22:48:42.765Z,12.10
2023-01-17T22:51:11.909Z,12.77
2023-01-17T22:53:43.309Z,11.87
2023-01-17T22:56:12.954Z,11.43
2023-01-17T22:58:44.501Z,11.30
2023-01-17T23:01:12.227Z,12.10
2023-01-17T23:03:40.760Z,12.67
2023-01-17T23:06:12.644Z,11.90
2023-01-17T23:08:41.436Z,12.40
2023-01-17T23:11:40.412Z,13.77
2023-01-17T23:14:25.768Z,13.40
2023-01-17T23:17:19.518Z,12.20
2023-01-17T23:19:51.922Z,11.43
2023-01-17T23:22:26.610Z,11.70
2023-01-17T23:25:11.956Z,11.27
2023-01-17T23:27:59.930Z,11.57
2023-01-17T23:30:36.721Z,11.87
2023-01-17T23:33:08.621Z,11.63
2023-01-17T23:35:41.547Z,11.57
2023-01-17T23:38:29.004Z,11.97
2023-01-17T23:41:22.119Z,11.30
2023-01-17T23:43:56.535Z,12.70
2023-01-17T23:46:24.351Z,11.53
2023-01-17T23:48:51.081Z,10.43
2023-01-17T23:51:18.361Z,11.83
2023-01-17T23:53:44.971Z,13.93
2023-01-17T23:56:20.678Z,13.30
2023-01-17T23:58:47.229Z,13.47
